Time;durP1;ratioP1;P1;durP2;ratioP2;P2;SDS_P1;SDS_P2;PMS_P1;PMS_P2;Temp;Humidity;BMP_temperature;BMP_pressure;BME280_temperature;BME280_humidity;BME280_pressure;Samples;Min_cycle;Max_cycle;Signal;HPM_P1;HPM_P2
2022/12/10 13:44:49;;;;;;;46.50;28.93;;;;;;;1.08;100.00;95139.63;4891486;28;105944;-60
2022/12/10 13:47:44;;;;;;;53.83;33.60;;;;;;;0.99;100.00;95140.97;4891590;28;102472;-60
2022/12/10 13:50:18;;;;;;;49.33;29.67;;;;;;;0.96;100.00;95138.78;4902109;28;103684;-60
2022/12/10 13:53:00;;;;;;;110.87;59.93;;;;;;;0.96;100.00;95144.84;4901793;28;101960;-60
2022/12/10 13:55:34;;;;;;;64.07;37.67;;;;;;;0.91;100.00;95146.50;4917304;28;104102;-60
2022/12/10 13:58:31;;;;;;;58.43;38.53;;;;;;;0.85;100.00;95155.22;4901010;28;104178;-60
2022/12/10 14:01:03;;;;;;;78.37;45.83;;;;;;;0.91;100.00;95162.19;4907728;28;102537;-60
2022/12/10 14:03:59;;;;;;;128.37;72.57;;;;;;;0.92;100.00;95159.38;4901081;28;104217;-60
2022/12/10 14:06:27;;;;;;;55.73;32.17;;;;;;;0.82;100.00;95174.00;4918955;28;105350;-60
2022/12/10 14:09:00;;;;;;;52.37;32.90;;;;;;;0.89;100.00;95177.31;4898813;28;102043;-60
2022/12/10 14:11:31;;;;;;;53.73;31.57;;;;;;;0.81;100.00;95173.19;4901428;28;105051;-60
2022/12/10 14:14:01;;;;;;;54.27;33.07;;;;;;;0.89;100.00;95180.72;4911875;28;103055;-60
2022/12/10 14:16:31;;;;;;;55.67;34.17;;;;;;;0.83;100.00;95176.38;4909452;28;102561;-60
2022/12/10 14:19:01;;;;;;;52.63;30.37;;;;;;;0.89;100.00;95179.94;4903401;28;105218;-60
2022/12/10 14:21:33;;;;;;;57.73;33.07;;;;;;;0.84;100.00;95187.66;4901145;28;102241;-60
2022/12/10 14:24:00;;;;;;;61.47;37.63;;;;;;;0.87;100.00;95192.44;4901372;28;103749;-60
2022/12/10 14:26:30;;;;;;;52.03;32.40;;;;;;;0.87;100.00;95197.66;4901034;28;105394;-60
2022/12/10 14:29:00;;;;;;;60.77;42.27;;;;;;;0.90;100.00;95198.06;4899187;28;102141;-60
2022/12/10 14:31:30;;;;;;;56.77;34.93;;;;;;;0.87;100.00;95197.66;4901173;28;105191;-60
2022/12/10 14:34:02;;;;;;;58.07;34.60;;;;;;;0.84;100.00;95193.69;4898260;28;105888;-60
2022/12/10 14:36:32;;;;;;;49.13;28.93;;;;;;;0.94;100.00;95203.63;4904480;28;102024;-60
2022/12/10 14:39:00;;;;;;;54.37;33.23;;;;;;;0.90;100.00;95205.09;4900626;28;105596;-60
2022/12/10 14:41:30;;;;;;;55.77;33.37;;;;;;;0.90;100.00;95202.47;4903548;28;101987;-60
2022/12/10 14:44:03;;;;;;;51.90;30.67;;;;;;;0.83;100.00;95202.53;4910159;28;105009;-60
2022/12/10 14:46:32;;;;;;;53.93;36.83;;;;;;;0.83;100.00;95209.59;4909648;28;104541;-60
2022/12/10 14:48:59;;;;;;;50.43;34.63;;;;;;;0.78;100.00;95212.06;4910391;28;101910;-60
2022/12/10 14:51:32;;;;;;;53.00;33.07;;;;;;;0.80;100.00;95215.25;4909939;28;103979;-60
2022/12/10 14:54:00;;;;;;;53.80;36.13;;;;;;;0.83;100.00;95218.25;4909481;28;105051;-60
2022/12/10 14:56:31;;;;;;;55.70;33.87;;;;;;;0.84;100.00;95219.88;4910377;28;102367;-60
2022/12/10 14:59:05;;;;;;;67.03;40.10;;;;;;;0.89;100.00;95227.03;4913001;28;105286;-60
2022/12/10 15:01:35;;;;;;;66.33;41.60;;;;;;;0.92;100.00;95235.25;4910013;28;101794;-60
2022/12/10 15:04:05;;;;;;;57.47;35.77;;;;;;;0.95;100.00;95237.44;4909911;28;103674;-60
2022/12/10 15:06:36;;;;;;;60.60;37.00;;;;;;;0.91;100.00;95238.91;4909552;28;105448;-60
2022/12/10 15:09:03;;;;;;;69.10;42.20;;;;;;;0.90;100.00;95231.25;4909864;28;101874;-60
2022/12/10 15:11:31;;;;;;;60.13;39.43;;;;;;;0.85;100.00;95241.56;4909736;28;105438;-60
2022/12/10 15:14:02;;;;;;;55.03;36.77;;;;;;;0.87;100.00;95242.16;4909250;28;106270;-60
2022/12/10 15:16:33;;;;;;;57.80;37.10;;;;;;;0.87;100.00;95250.00;4908841;28;101988;-60
2022/12/10 15:19:21;;;;;;;59.80;39.83;;;;;;;0.93;100.00;95249.16;4909549;28;105035;-60
2022/12/10 15:21:50;;;;;;;69.40;42.53;;;;;;;1.01;100.00;95251.47;4912673;28;104803;-60
2022/12/10 15:24:21;;;;;;;64.30;40.03;;;;;;;1.02;100.00;95258.28;4909675;28;104941;-60
2022/12/10 15:26:51;;;;;;;53.83;31.80;;;;;;;0.90;100.00;95265.28;4909324;28;105021;-60
2022/12/10 15:29:35;;;;;;;56.03;33.10;;;;;;;0.99;100.00;95264.75;4909601;28;102058;-60
2022/12/10 15:32:06;;;;;;;53.50;32.47;;;;;;;0.95;100.00;95268.03;4909854;28;103697;-60
2022/12/10 15:34:39;;;;;;;53.37;33.53;;;;;;;1.02;100.00;95269.56;4909103;28;105191;-60
2022/12/10 15:37:14;;;;;;;56.00;36.70;;;;;;;1.09;100.00;95267.66;4909658;28;102077;-60
2022/12/10 15:39:46;;;;;;;46.63;28.50;;;;;;;0.95;100.00;95270.66;4909557;28;104542;-60
2022/12/10 15:42:36;;;;;;;51.43;32.20;;;;;;;1.02;100.00;95274.00;4911792;28;104212;-60
2022/12/10 15:45:18;;;;;;;47.87;28.30;;;;;;;0.92;100.00;95273.69;4909277;28;104962;-60
2022/12/10 15:47:46;;;;;;;47.87;28.13;;;;;;;0.85;100.00;95273.78;4908660;28;105609;-60
2022/12/10 15:50:13;;;;;;;49.33;27.97;;;;;;;0.85;100.00;95275.59;4909495;28;102053;-60
2022/12/10 15:52:40;;;;;;;46.13;27.63;;;;;;;0.80;100.00;95280.66;4909040;28;105286;-60
2022/12/10 15:55:08;;;;;;;46.00;27.87;;;;;;;0.86;100.00;95274.56;4908685;28;105575;-60
2022/12/10 15:57:36;;;;;;;44.70;27.17;;;;;;;0.88;100.00;95277.78;4909318;28;102167;-60
2022/12/10 16:00:08;;;;;;;46.37;27.77;;;;;;;0.88;100.00;95283.03;4909201;28;105270;-60
2022/12/10 16:02:44;;;;;;;46.53;27.97;;;;;;;0.87;100.00;95281.41;4908922;28;105788;-60
2022/12/10 16:05:14;;;;;;;42.93;26.57;;;;;;;0.82;100.00;95284.69;4914123;28;102021;-60
2022/12/10 16:07:41;;;;;;;54.07;30.97;;;;;;;0.80;100.00;95293.75;4908423;28;105365;-60
2022/12/10 16:10:10;;;;;;;47.07;28.70;;;;;;;0.81;100.00;95297.97;4909406;28;101954;-60
2022/12/10 16:12:38;;;;;;;54.13;32.50;;;;;;;0.81;100.00;95297.97;4907097;28;105070;-60
2022/12/10 16:15:09;;;;;;;57.67;32.70;;;;;;;0.91;100.00;95301.69;4908506;28;105184;-60
2022/12/10 16:17:35;;;;;;;59.67;35.43;;;;;;;0.88;100.00;95309.97;4909252;28;101960;-60
2022/12/10 16:20:18;;;;;;;63.93;39.33;;;;;;;0.91;100.00;95311.34;4908782;28;104875;-60
2022/12/10 16:22:44;;;;;;;67.50;41.93;;;;;;;0.92;100.00;95315.56;4908446;28;103967;-60
2022/12/10 16:25:12;;;;;;;60.33;36.40;;;;;;;1.03;100.00;95314.84;4908970;28;101919;-60
2022/12/10 16:27:42;;;;;;;53.60;33.63;;;;;;;0.95;100.00;95315.97;4914011;28;105455;-60
2022/12/10 16:30:17;;;;;;;54.60;31.70;;;;;;;0.90;100.00;95320.22;4912280;28;102125;-60
2022/12/10 16:32:45;;;;;;;63.27;35.70;;;;;;;0.85;100.00;95317.47;4912077;28;105530;-60
2022/12/10 16:35:13;;;;;;;60.47;35.70;;;;;;;0.95;100.00;95315.97;4911503;28;105897;-59
2022/12/10 16:37:42;;;;;;;54.60;31.73;;;;;;;0.87;100.00;95329.31;4912116;28;101766;-59
2022/12/10 16:40:11;;;;;;;65.73;36.07;;;;;;;0.82;100.00;95331.00;4912009;28;105128;-59
2022/12/10 16:42:37;;;;;;;54.17;31.40;;;;;;;0.81;100.00;95337.22;4911158;28;104495;-59
2022/12/10 16:45:15;;;;;;;63.30;37.00;;;;;;;0.80;100.00;95330.38;4911941;28;102003;-59
2022/12/10 16:47:42;;;;;;;60.53;35.60;;;;;;;0.73;100.00;95329.66;4911864;28;105433;-59
2022/12/10 16:50:09;;;;;;;58.53;35.70;;;;;;;0.70;100.00;95336.13;4914767;28;105530;-59
2022/12/10 16:52:36;;;;;;;55.83;31.07;;;;;;;0.69;100.00;95350.22;4911863;28;104522;-59
2022/12/10 16:55:05;;;;;;;57.87;34.27;;;;;;;0.64;100.00;95346.63;4911247;28;105603;-60
2022/12/10 16:57:31;;;;;;;51.87;31.67;;;;;;;0.64;100.00;95344.00;4913113;28;101728;-59
2022/12/10 16:59:58;;;;;;;56.50;35.00;;;;;;;0.70;100.00;95357.03;4911605;28;104255;-59
2022/12/10 17:02:27;;;;;;;43.67;26.30;;;;;;;0.63;100.00;95358.13;4912598;28;103050;-59
2022/12/10 17:04:54;;;;;;;47.47;27.40;;;;;;;0.63;100.00;95363.34;4911723;28;102259;-59
2022/12/10 17:07:21;;;;;;;43.47;26.20;;;;;;;0.58;100.00;95365.78;4911562;28;105282;-59
2022/12/10 17:09:48;;;;;;;41.53;24.43;;;;;;;0.60;100.00;95356.72;4911066;28;106060;-62
2022/12/10 17:12:15;;;;;;;43.23;25.13;;;;;;;0.60;100.00;95358.56;4915101;28;102086;-59
2022/12/10 17:14:46;;;;;;;50.00;29.60;;;;;;;0.60;100.00;95361.16;4910821;28;105683;-59
2022/12/10 17:17:14;;;;;;;41.50;25.13;;;;;;;0.54;100.00;95356.75;4911432;28;102092;-59
2022/12/10 17:19:44;;;;;;;43.90;26.40;;;;;;;0.54;100.00;95364.63;4911454;28;104839;-59
2022/12/10 17:22:12;;;;;;;49.33;28.97;;;;;;;0.55;100.00;95361.78;4912367;28;103091;-59
2022/12/10 17:24:39;;;;;;;46.13;28.40;;;;;;;0.52;100.00;95364.03;4911378;28;102132;-59
2022/12/10 17:27:11;;;;;;;51.20;28.67;;;;;;;0.53;100.00;95369.06;4912946;28;103054;-59
2022/12/10 17:29:40;;;;;;;43.57;26.77;;;;;;;0.55;100.00;95366.25;4910935;28;105227;-59
2022/12/10 17:32:12;;;;;;;59.33;34.53;;;;;;;0.51;100.00;95370.28;4911109;28;102264;-59
2022/12/10 17:34:41;;;;;;;46.60;28.13;;;;;;;0.49;100.00;95375.72;4913722;28;105129;-59
2022/12/10 17:37:11;;;;;;;49.27;29.20;;;;;;;0.50;100.00;95368.69;4911226;28;101897;-60
2022/12/10 17:39:38;;;;;;;47.50;29.07;;;;;;;0.47;100.00;95376.94;4910407;28;105560;-60
2022/12/10 17:42:07;;;;;;;65.23;36.80;;;;;;;0.51;100.00;95378.13;4910428;28;105436;-60
2022/12/10 17:44:34;;;;;;;57.00;31.80;;;;;;;0.55;100.00;95376.69;4911071;28;102070;-60
2022/12/10 17:47:02;;;;;;;55.47;31.57;;;;;;;0.44;100.00;95374.78;4910694;28;105240;-60
2022/12/10 17:49:31;;;;;;;41.57;25.43;;;;;;;0.44;100.00;95372.94;4910436;28;105498;-59
2022/12/10 17:51:59;;;;;;;40.43;24.77;;;;;;;0.54;100.00;95375.06;4911087;28;102122;-60
2022/12/10 17:54:26;;;;;;;41.90;25.07;;;;;;;0.52;100.00;95377.13;4913830;28;102959;-59
2022/12/10 17:56:53;;;;;;;38.50;23.93;;;;;;;0.50;100.00;95384.38;4910891;28;101831;-60
2022/12/10 17:59:20;;;;;;;41.13;25.60;;;;;;;0.45;100.00;95381.59;4910667;28;105504;-60
2022/12/10 18:01:46;;;;;;;45.47;26.40;;;;;;;0.53;100.00;95378.72;4910010;28;105188;-60
2022/12/10 18:04:13;;;;;;;49.97;29.87;;;;;;;0.57;100.00;95375.47;4910113;28;102066;-60
2022/12/10 18:06:40;;;;;;;42.53;25.03;;;;;;;0.48;100.00;95381.16;4910786;28;105331;-60
2022/12/10 18:09:10;;;;;;;44.50;26.93;;;;;;;0.44;100.00;95385.22;4911496;28;102644;-59
2022/12/10 18:11:39;;;;;;;39.07;22.57;;;;;;;0.63;100.00;95384.28;4910844;28;101973;-59
2022/12/10 18:14:05;;;;;;;37.07;24.00;;;;;;;0.54;100.00;95393.38;4910652;28;105490;-60
2022/12/10 18:16:34;;;;;;;37.13;23.13;;;;;;;0.73;100.00;95397.69;4913436;28;105599;-59
2022/12/10 18:19:04;;;;;;;51.97;31.87;;;;;;;0.68;100.00;95400.13;4910713;28;104999;-60
2022/12/10 18:21:31;;;;;;;43.90;26.83;;;;;;;0.78;100.00;95400.44;4909696;28;106809;-60
2022/12/10 18:23:58;;;;;;;39.73;25.03;;;;;;;0.73;100.00;95405.53;4911836;28;101914;-60
2022/12/10 18:26:27;;;;;;;38.00;23.60;;;;;;;0.74;100.00;95407.13;4910656;28;105558;-60
2022/12/10 18:28:56;;;;;;;32.07;21.70;;;;;;;0.49;100.00;95414.13;4909925;28;105331;-60
2022/12/10 18:31:27;;;;;;;41.83;23.57;;;;;;;0.55;100.00;95410.69;4910516;28;102088;-60
2022/12/10 18:33:58;;;;;;;41.33;24.60;;;;;;;0.40;100.00;95415.44;4910429;28;104943;-60
2022/12/10 18:36:27;;;;;;;37.23;22.47;;;;;;;0.26;100.00;95414.72;4909861;28;105411;-60
2022/12/10 18:38:57;;;;;;;43.83;26.23;;;;;;;0.25;100.00;95417.53;4913607;28;101937;-60
2022/12/10 18:41:24;;;;;;;50.30;30.00;;;;;;;0.21;100.00;95421.56;4909322;28;105364;-60
2022/12/10 18:43:53;;;;;;;52.87;32.23;;;;;;;0.22;100.00;95416.13;4910129;28;102020;-60
2022/12/10 18:46:22;;;;;;;51.63;31.50;;;;;;;0.32;100.00;95426.94;4909951;28;104750;-60
2022/12/10 18:48:49;;;;;;;47.90;29.87;;;;;;;0.29;100.00;95418.72;4909470;28;105606;-60
2022/12/10 18:51:16;;;;;;;50.07;31.43;;;;;;;0.34;100.00;95419.66;4910258;28;102114;-60
2022/12/10 18:53:45;;;;;;;48.50;31.37;;;;;;;0.36;100.00;95424.69;4910085;28;104931;-62
2022/12/10 18:56:14;;;;;;;50.77;31.60;;;;;;;0.33;100.00;95431.16;4909259;28;105695;-62
2022/12/10 18:58:41;;;;;;;52.17;28.97;;;;;;;0.30;100.00;95430.78;4909778;28;102225;-62
2022/12/10 19:01:10;;;;;;;51.47;32.07;;;;;;;0.28;100.00;95438.03;4912863;28;104928;-62
2022/12/10 19:03:37;;;;;;;44.10;26.97;;;;;;;0.19;100.00;95432.25;4909965;28;102056;-62
2022/12/10 19:06:05;;;;;;;33.63;21.80;;;;;;;0.04;100.00;95441.34;4910152;28;104984;-60
2022/12/10 19:08:31;;;;;;;32.97;20.03;;;;;;;-0.12;100.00;95450.47;4909323;28;105364;-59
2022/12/10 19:13:42;;;;;;;34.53;22.23;;;;;;;-0.20;100.00;95440.25;4898158;28;102158;-54
2022/12/10 19:16:13;;;;;;;30.80;20.03;;;;;;;-0.22;100.00;95441.47;4910876;28;102535;-58
2022/12/10 19:18:40;;;;;;;28.53;18.13;;;;;;;-0.21;100.00;95443.88;4911376;28;101880;-58
2022/12/10 19:21:07;;;;;;;29.77;19.70;;;;;;;-0.18;100.00;95442.66;4893860;28;105319;-58
2022/12/10 19:23:42;;;;;;;33.07;20.27;;;;;;;-0.22;100.00;95453.75;4914072;28;103044;-59
2022/12/10 19:26:25;;;;;;;32.47;19.70;;;;;;;-0.27;100.00;95451.75;4893914;28;104155;-59
2022/12/10 19:28:52;;;;;;;32.17;19.53;;;;;;;-0.26;100.00;95448.13;4910786;28;103153;-58
2022/12/10 19:31:21;;;;;;;30.70;18.67;;;;;;;-0.27;100.00;95460.38;4893887;28;102021;-58
2022/12/10 19:33:57;;;;;;;31.43;19.47;;;;;;;-0.36;100.00;95460.81;4893858;28;105916;-58
2022/12/10 19:36:26;;;;;;;28.40;18.23;;;;;;;-0.27;100.00;95459.59;4910853;28;102753;-59
2022/12/10 19:38:54;;;;;;;34.33;20.80;;;;;;;-0.33;100.00;95455.16;4893550;28;102335;-59
2022/12/10 19:41:21;;;;;;;32.73;20.47;;;;;;;-0.36;100.00;95455.59;4893495;28;106545;-59
2022/12/10 19:43:50;;;;;;;34.73;22.40;;;;;;;-0.33;100.00;95455.16;4910472;28;103039;-59
2022/12/10 19:46:19;;;;;;;34.13;20.67;;;;;;;-0.38;100.00;95453.19;4896978;28;101733;-59
2022/12/10 19:48:47;;;;;;;29.50;19.67;;;;;;;-0.34;100.00;95456.19;4910334;28;103363;-59
2022/12/10 19:51:15;;;;;;;36.13;21.97;;;;;;;-0.36;100.00;95460.81;4910667;28;101913;-59
2022/12/10 19:53:44;;;;;;;34.07;21.43;;;;;;;-0.29;100.00;95461.59;4910903;28;102503;-59
2022/12/10 19:56:19;;;;;;;36.00;22.60;;;;;;;-0.33;100.00;95465.63;4910192;28;102175;-59
2022/12/10 19:58:47;;;;;;;38.10;22.90;;;;;;;-0.34;100.00;95469.25;4893634;28;101873;-56
2022/12/10 20:01:13;;;;;;;37.90;24.33;;;;;;;-0.32;100.00;95468.03;4911451;28;102326;-55
2022/12/10 20:03:48;;;;;;;40.83;23.77;;;;;;;-0.26;100.00;95463.81;4896236;28;105552;-59
2022/12/10 20:06:20;;;;;;;36.07;23.27;;;;;;;-0.32;100.00;95471.66;4917938;28;101799;-58
2022/12/10 20:08:47;;;;;;;40.87;26.03;;;;;;;-0.25;100.00;95468.03;4896529;28;105638;-58
2022/12/10 20:11:14;;;;;;;37.23;23.17;;;;;;;-0.12;100.00;95467.97;4891427;28;102067;-49
2022/12/10 20:13:44;;;;;;;68.23;38.27;;;;;;;-0.16;100.00;95472.81;4896679;28;105344;-57
2022/12/10 20:16:17;;;;;;;54.73;33.43;;;;;;;-0.19;100.00;95477.63;4895843;28;105754;-58
2022/12/10 20:18:44;;;;;;;49.63;30.30;;;;;;;-0.23;100.00;95478.25;4896634;28;102011;-58
2022/12/10 20:21:13;;;;;;;44.27;29.23;;;;;;;-0.15;100.00;95468.38;4896534;28;104089;-58
2022/12/10 20:23:40;;;;;;;40.70;25.57;;;;;;;-0.23;100.00;95475.66;4895973;28;105564;-58
2022/12/10 20:26:16;;;;;;;37.03;22.53;;;;;;;-0.26;100.00;95484.69;4896125;28;102561;-58
2022/12/10 20:28:43;;;;;;;35.73;23.07;;;;;;;-0.25;100.00;95478.47;4899386;28;103800;-56
2022/12/10 20:31:12;;;;;;;42.10;26.63;;;;;;;-0.33;100.00;95483.91;4896347;28;101988;-59
2022/12/10 20:33:45;;;;;;;46.60;29.07;;;;;;;-0.19;100.00;95482.88;4896414;28;103729;-59
2022/12/10 20:36:17;;;;;;;46.30;28.97;;;;;;;-0.13;100.00;95481.25;4895666;28;105568;-59
2022/12/10 20:38:44;;;;;;;45.40;27.13;;;;;;;-0.18;100.00;95481.84;4896283;28;101875;-55
2022/12/10 20:41:11;;;;;;;44.13;26.20;;;;;;;-0.21;100.00;95472.63;4896352;28;105253;-58
2022/12/10 20:43:41;;;;;;;43.33;26.13;;;;;;;-0.16;100.00;95477.25;4913135;28;102907;-58
2022/12/10 20:46:14;;;;;;;47.03;27.43;;;;;;;-0.23;100.00;95471.22;4896441;28;102055;-58
2022/12/10 20:48:41;;;;;;;44.63;25.70;;;;;;;-0.27;100.00;95476.06;4913580;28;102417;-59
2022/12/10 20:51:08;;;;;;;46.63;28.73;;;;;;;-0.20;100.00;95470.81;4898918;28;106165;-54
2022/12/10 20:53:38;;;;;;;44.13;25.97;;;;;;;-0.15;100.00;95466.56;4896147;28;105608;-58
2022/12/10 20:56:06;;;;;;;43.43;27.10;;;;;;;-0.13;100.00;95474.19;4912989;28;102667;-58
2022/12/10 20:58:33;;;;;;;47.03;28.80;;;;;;;-0.18;100.00;95483.69;4896188;28;101911;-58
2022/12/10 21:01:01;;;;;;;45.67;27.47;;;;;;;-0.18;100.00;95481.06;4913487;28;102358;-58
2022/12/10 21:03:31;;;;;;;49.17;30.93;;;;;;;-0.19;100.00;95482.88;4896084;28;105707;-59
2022/12/10 21:05:58;;;;;;;47.23;29.80;;;;;;;-0.22;100.00;95483.25;4896429;28;102087;-55
2022/12/10 21:08:25;;;;;;;51.63;31.33;;;;;;;-0.17;100.00;95485.28;4896067;28;104048;-56
2022/12/10 21:10:55;;;;;;;49.93;29.57;;;;;;;-0.22;100.00;95489.31;4912947;28;102862;-57
2022/12/10 21:13:27;;;;;;;50.87;31.23;;;;;;;-0.17;100.00;95485.28;4898307;28;102115;-49
2022/12/10 21:15:54;;;;;;;51.30;31.07;;;;;;;-0.15;100.00;95489.28;4895699;28;106134;-49
2022/12/10 21:18:21;;;;;;;49.70;30.50;;;;;;;-0.18;100.00;95494.13;4895632;28;102052;-56
2022/12/10 21:20:49;;;;;;;49.70;28.53;;;;;;;-0.20;100.00;95495.09;4895199;28;105456;-58
2022/12/10 21:23:18;;;;;;;42.87;27.00;;;;;;;-0.26;100.00;95492.53;4894155;28;106066;-58
2022/12/10 21:25:45;;;;;;;41.73;25.83;;;;;;;-0.25;100.00;95496.75;4896445;28;101913;-58
2022/12/10 21:28:13;;;;;;;43.87;26.47;;;;;;;-0.28;100.00;95489.31;4896096;28;105194;-58
2022/12/10 21:30:43;;;;;;;42.93;26.10;;;;;;;-0.20;100.00;95497.72;4894997;28;105317;-58
2022/12/10 21:48:23;;;;;;;40.40;25.30;;;;;;;-0.34;100.00;95484.91;4910578;28;102117;-56
2022/12/10 21:50:57;;;;;;;42.73;25.50;;;;;;;-0.32;100.00;95493.34;4913116;28;102189;-59
2022/12/10 21:53:24;;;;;;;47.13;27.87;;;;;;;-0.35;100.00;95491.16;4896857;28;105238;-58
2022/12/10 21:55:51;;;;;;;79.50;38.77;;;;;;;-0.39;100.00;95492.56;4893942;28;105214;-56
2022/12/10 21:58:18;;;;;;;136.67;52.23;;;;;;;-0.40;100.00;95492.78;4895255;28;102169;-55
2022/12/10 22:00:45;;;;;;;131.37;54.50;;;;;;;-0.32;100.00;95497.78;4894632;28;105022;-56
2022/12/10 22:03:12;;;;;;;48.00;29.23;;;;;;;-0.38;100.00;95492.34;4898561;28;101929;-56
2022/12/10 22:05:44;;;;;;;93.53;43.83;;;;;;;-0.39;100.00;95503.00;4895674;28;104765;-56
2022/12/10 22:08:10;;;;;;;49.83;28.90;;;;;;;-0.35;100.00;95498.97;4894934;28;105770;-54
2022/12/10 22:10:37;;;;;;;141.67;59.50;;;;;;;-0.38;100.00;95494.19;4893013;28;101977;-56
2022/12/10 22:13:09;;;;;;;79.87;41.87;;;;;;;-0.34;100.00;95495.34;4893105;28;104930;-55
2022/12/10 22:15:36;;;;;;;55.07;33.20;;;;;;;-0.31;100.00;95494.97;4892984;28;105618;-54
2022/12/10 22:18:03;;;;;;;60.87;37.83;;;;;;;-0.32;100.00;95491.53;4892855;28;102409;-56
2022/12/10 22:20:30;;;;;;;47.73;28.37;;;;;;;-0.30;100.00;95496.56;4892387;28;105655;-56
2022/12/10 22:22:58;;;;;;;46.67;28.83;;;;;;;-0.35;100.00;95498.97;4895681;28;105410;-56
2022/12/10 22:25:25;;;;;;;46.60;28.87;;;;;;;-0.36;100.00;95497.38;4892930;28;105265;-56
2022/12/10 22:27:52;;;;;;;46.60;28.10;;;;;;;-0.33;100.00;95496.97;4894197;28;105158;-56
2022/12/10 22:30:20;;;;;;;49.53;31.97;;;;;;;-0.33;100.00;95496.97;4894800;28;102028;-56
2022/12/10 22:32:48;;;;;;;48.50;28.73;;;;;;;-0.38;100.00;95496.78;4894862;28;105642;-55
2022/12/10 22:35:15;;;;;;;46.87;28.73;;;;;;;-0.33;100.00;95496.97;4894188;28;105766;-56
2022/12/10 22:37:42;;;;;;;48.03;28.30;;;;;;;-0.35;100.00;95496.38;4894832;28;101787;-56
2022/12/10 22:40:12;;;;;;;49.70;28.17;;;;;;;-0.30;100.00;95496.56;4894774;28;105217;-57
2022/12/10 22:42:39;;;;;;;51.43;30.43;;;;;;;-0.38;100.00;95494.97;4893824;28;104208;-56
2022/12/10 22:45:08;;;;;;;44.73;26.97;;;;;;;-0.33;100.00;95494.34;4897892;28;101951;-55
2022/12/10 22:47:35;;;;;;;44.47;27.83;;;;;;;-0.32;100.00;95495.97;4893826;28;103890;-56
2022/12/10 22:50:03;;;;;;;49.87;29.00;;;;;;;-0.32;100.00;95490.75;4894396;28;101919;-54
2022/12/10 22:52:30;;;;;;;47.80;28.17;;;;;;;-0.27;100.00;95496.94;4894678;28;105007;-56
2022/12/10 22:54:57;;;;;;;46.30;28.70;;;;;;;-0.27;100.00;95496.16;4893711;28;105390;-54
2022/12/10 22:57:25;;;;;;;50.33;28.87;;;;;;;-0.32;100.00;95497.78;4895126;28;102056;-55
2022/12/10 22:59:52;;;;;;;47.27;28.47;;;;;;;-0.32;100.00;95485.53;4912621;28;102816;-56
2022/12/10 23:02:19;;;;;;;51.73;30.43;;;;;;;-0.38;100.00;95487.13;4911837;28;103298;-55
2022/12/10 23:04:48;;;;;;;51.37;30.07;;;;;;;-0.34;100.00;95484.91;4912217;28;101899;-56
2022/12/10 23:07:16;;;;;;;47.73;29.67;;;;;;;-0.34;100.00;95497.19;4914629;28;102893;-55
2022/12/10 23:09:43;;;;;;;48.80;30.73;;;;;;;-0.34;100.00;95490.13;4912071;28;101840;-56
2022/12/10 23:14:56;;;;;;;53.23;30.97;;;;;;;-0.44;100.00;95492.38;4911461;28;103058;-56
2022/12/10 23:17:24;;;;;;;51.43;31.07;;;;;;;-0.48;100.00;95483.34;4894338;28;101878;-54
2022/12/10 23:19:51;;;;;;;52.23;32.03;;;;;;;-0.47;100.00;95487.56;4894853;28;106289;-56
2022/12/10 23:22:18;;;;;;;52.90;31.47;;;;;;;-0.53;100.00;95490.19;4911906;28;102594;-56
2022/12/10 23:24:44;;;;;;;56.03;31.93;;;;;;;-0.50;100.00;95493.19;4895322;28;101872;-55
2022/12/10 23:27:11;;;;;;;49.73;30.87;;;;;;;-0.54;100.00;95492.00;4895149;28;105487;-54
2022/12/10 23:29:38;;;;;;;54.07;31.57;;;;;;;-0.53;100.00;95491.00;4915402;28;103291;-56
2022/12/10 23:32:06;;;;;;;51.47;31.73;;;;;;;-0.54;100.00;95491.19;4912385;28;102815;-56
2022/12/10 23:34:35;;;;;;;52.87;30.83;;;;;;;-0.54;100.00;95488.56;4894803;28;105283;-55
2022/12/10 23:37:02;;;;;;;49.47;30.17;;;;;;;-0.55;100.00;95486.97;4894359;28;101909;-56
2022/12/10 23:39:30;;;;;;;51.70;31.30;;;;;;;-0.54;100.00;95478.94;4893908;28;105366;-56
2022/12/10 23:41:57;;;;;;;52.23;31.07;;;;;;;-0.56;100.00;95475.72;4894521;28;104663;-55
2022/12/10 23:44:24;;;;;;;52.67;31.43;;;;;;;-0.55;100.00;95473.94;4894437;28;101936;-53
2022/12/10 23:46:51;;;;;;;53.93;30.93;;;;;;;-0.55;100.00;95479.16;4913027;28;102922;-55
2022/12/10 23:49:19;;;;;;;56.50;30.33;;;;;;;-0.60;100.00;95479.75;4894734;28;105801;-55
2022/12/10 23:51:46;;;;;;;53.87;31.63;;;;;;;-0.58;100.00;95475.13;4915592;28;101898;-56
2022/12/10 23:54:13;;;;;;;53.50;32.10;;;;;;;-0.57;100.00;95479.34;4911718;28;102830;-56
2022/12/10 23:56:40;;;;;;;52.53;31.73;;;;;;;-0.55;100.00;95481.75;4894953;28;103751;-55
2022/12/10 23:59:08;;;;;;;50.73;29.83;;;;;;;-0.55;100.00;95466.88;4912340;28;102687;-56
